Aérodrome :
LOGIN :

S'inscrire | Disclaimer

   EN    FR    IT 

 










Légende :    VFR   VFR Marginal   IFR   IFR Intensif   IFR Très Intensif
Visi : 
Plafond : 
>= 8 km
>= 3000ft
5 à 8 km
1000 à 3000 ft
1500m à 5 km
500 à 1000 ft
800 à 1500m
200 à 500 ft
< 800m
< 200 ft
Symboles :   Orages  Brouillard  Fortes neiges  Fortes précipitations  Vent > 20 kt
SIGMETs :   Divers  Orages  Givrage  Turbulence  Onde Orograph.  Cendres Volcan.







- Altitude de l'aérodrome : 659 ft
- Code IATA : LGG


EBLG - Liège

DERNIER METAR :
  • 211520Z 22016KT 9999 SCT012 BKN029 09/08 Q1013 TEMPO 5000 BR BKN006

METARs EXPIRÉS :
  • 211450Z 22016KT 9999 BKN012 BKN029 09/08 Q1013 TEMPO 5000 BR BKN006
  • 211420Z 21016KT 9999 FEW010 BKN013 BKN031 09/08 Q1013 TEMPO 2500 BR BKN004
  • 211350Z 21015KT 9999 FEW006 BKN011 BKN030 09/08 Q1013 TEMPO 2500 BR BKN004
  • 211320Z 22015KT 9999 SCT006 BKN010 09/08 Q1013 TEMPO 2500 BR BKN004
  • 211250Z 22016KT 9999 BKN006 BKN009 09/08 Q1013 TEMPO 2500 BR BKN004

TAF TAF EBLG
Valide du 21 à 12h jusqu'au 22 à 18h UTC


211110Z 2112/2218 23012KT 6000 SCT004 BKN006
TEMPO 2112/2115 SCT008 BKN012
PROB40
TEMPO 2116/2122 4500 -DZRA BKN004
BECMG 2209/2211 SCT008 BKN012
BECMG 2212/2214 SCT012
Pas de NOTAMs connus pour ce terrain.



MET'MAP, la Météo Aéronautique d'un coup d'oeil ! - Copyright ORBIFLY Décembre 2007 - Disclaimer

ORBIFLY MET'MAP TEAM :

Programmation & Développement : Alexandra Zaïnal
Conception & Développement : Baudouin d'Aumeries
Co-Programmation & Développement : Marc-Olivier Méhu
Soutien technique & logistique : Manuel Goepfert

Contact : metmap@orbifly.com




SOURCES & CREDITS :

   NOAA